Time;durP1;ratioP1;P1;durP2;ratioP2;P2;SDS_P1;SDS_P2;PMS_P1;PMS_P2;Temp;Humidity;BMP_temperature;BMP_pressure;BME280_temperature;BME280_humidity;BME280_pressure;Samples;Min_cycle;Max_cycle;Signal;HPM_P1;HPM_P2
2022/01/31 00:02:22;;;;;;;8.73;4.00;;;11.70;81.30;;;;;;5187147;28;20128;-32
2022/01/31 00:04:53;;;;;;;6.50;3.10;;;11.70;81.30;;;;;;5200719;28;20469;-32
2022/01/31 00:07:24;;;;;;;6.20;2.67;;;11.80;81.50;;;;;;5187176;28;20046;-32
2022/01/31 00:09:56;;;;;;;9.03;3.10;;;11.70;81.40;;;;;;5186900;28;20042;-33
2022/01/31 00:12:31;;;;;;;7.23;2.30;;;11.70;81.50;;;;;;5186955;28;20045;-32
2022/01/31 00:15:04;;;;;;;8.70;2.30;;;11.70;81.40;;;;;;5199150;28;20125;-32
2022/01/31 00:17:35;;;;;;;6.53;2.00;;;11.70;81.30;;;;;;5187025;28;20476;-30
2022/01/31 00:20:07;;;;;;;5.77;2.20;;;11.60;81.50;;;;;;5186695;28;20070;-31
2022/01/31 00:22:38;;;;;;;8.27;2.70;;;11.60;81.80;;;;;;5186714;28;20115;-32
2022/01/31 00:25:09;;;;;;;6.03;2.33;;;11.60;81.80;;;;;;5185459;28;20128;-32
2022/01/31 00:27:40;;;;;;;6.17;2.33;;;11.60;81.60;;;;;;5168013;28;20046;-32
2022/01/31 00:30:12;;;;;;;8.87;3.30;;;11.50;81.70;;;;;;5185558;28;20113;-32
2022/01/31 00:32:43;;;;;;;6.03;2.87;;;11.60;82.20;;;;;;5200482;28;20042;-32
2022/01/31 00:35:14;;;;;;;4.97;1.80;;;11.60;82.20;;;;;;5186289;28;20110;-32
2022/01/31 00:37:45;;;;;;;5.47;2.00;;;11.60;82.00;;;;;;5200204;28;20073;-31
2022/01/31 00:40:16;;;;;;;7.13;2.47;;;11.60;81.80;;;;;;5198298;28;20487;-33
2022/01/31 00:42:47;;;;;;;5.30;2.37;;;11.60;82.00;;;;;;5186384;28;20132;-30
2022/01/31 00:45:29;;;;;;;6.47;2.17;;;11.60;81.60;;;;;;5186387;28;20046;-33
2022/01/31 00:48:04;;;;;;;7.27;2.77;;;11.60;81.50;;;;;;5186232;28;20373;-31
2022/01/31 00:50:39;;;;;;;7.83;2.50;;;11.60;81.70;;;;;;5185801;28;20777;-31
2022/01/31 00:53:10;;;;;;;6.77;2.27;;;11.60;81.70;;;;;;5184991;28;20381;-32
2022/01/31 00:55:41;;;;;;;7.03;2.23;;;11.70;81.50;;;;;;5186198;28;20048;-32
2022/01/31 00:58:12;;;;;;;7.23;2.97;;;11.70;81.20;;;;;;5185869;28;20045;-31
2022/01/31 01:00:43;;;;;;;10.60;4.23;;;11.70;81.30;;;;;;5185847;28;20041;-31
2022/01/31 01:03:14;;;;;;;11.20;6.00;;;11.80;81.70;;;;;;5185554;28;20459;-31
2022/01/31 01:05:45;;;;;;;7.60;2.90;;;11.80;81.50;;;;;;5185916;28;20116;-32
2022/01/31 01:08:15;;;;;;;9.20;3.80;;;11.70;81.30;;;;;;5185857;28;20041;-32
2022/01/31 01:10:47;;;;;;;12.63;8.37;;;11.80;81.40;;;;;;5185744;28;20054;-32
2022/01/31 01:13:18;;;;;;;9.50;4.23;;;11.80;81.70;;;;;;5185717;28;20053;-31
2022/01/31 01:15:49;;;;;;;12.53;6.77;;;11.80;81.90;;;;;;5199001;28;20073;-32
2022/01/31 01:18:20;;;;;;;11.93;6.60;;;11.90;82.30;;;;;;5185767;28;20084;-32
2022/01/31 01:20:51;;;;;;;7.27;3.27;;;11.90;82.50;;;;;;5185616;28;20754;-32
2022/01/31 01:23:22;;;;;;;7.30;3.07;;;11.90;82.70;;;;;;5185610;28;20129;-32
2022/01/31 01:25:53;;;;;;;7.73;3.57;;;11.90;82.80;;;;;;5185073;28;20133;-30
2022/01/31 01:28:25;;;;;;;6.80;3.80;;;11.90;83.00;;;;;;5185645;28;20123;-31
2022/01/31 01:30:57;;;;;;;8.32;2.65;;;11.90;83.30;;;;;;5184171;28;20049;-32
2022/01/31 01:33:28;;;;;;;7.37;2.47;;;11.80;83.30;;;;;;5185428;28;20443;-31
2022/01/31 01:35:59;;;;;;;9.13;2.80;;;11.80;83.30;;;;;;5184996;28;20058;-33
2022/01/31 01:38:30;;;;;;;7.13;2.50;;;11.80;83.40;;;;;;5185106;28;20069;-33
2022/01/31 01:41:01;;;;;;;10.33;3.57;;;11.80;83.60;;;;;;5185287;28;20457;-31
2022/01/31 01:43:32;;;;;;;8.13;3.03;;;11.80;83.40;;;;;;5185202;28;20049;-32
2022/01/31 01:46:04;;;;;;;9.40;2.70;;;11.80;83.70;;;;;;5184973;28;20037;-33
2022/01/31 01:48:34;;;;;;;7.63;3.43;;;11.80;83.90;;;;;;5183653;28;20046;-32
2022/01/31 01:51:05;;;;;;;6.70;2.63;;;11.80;83.70;;;;;;5184457;28;20125;-33
2022/01/31 01:53:36;;;;;;;8.63;3.23;;;11.80;83.80;;;;;;5177629;28;20136;-30
2022/01/31 01:56:08;;;;;;;7.30;2.97;;;11.80;83.80;;;;;;5188502;28;20049;-32
2022/01/31 01:58:41;;;;;;;9.87;3.57;;;11.80;83.70;;;;;;5183746;28;20042;-31
2022/01/31 02:01:12;;;;;;;9.83;3.53;;;11.80;83.80;;;;;;5184817;28;20041;-31
2022/01/31 02:03:43;;;;;;;9.57;3.67;;;11.90;83.80;;;;;;5183592;28;20507;-32
2022/01/31 02:06:14;;;;;;;10.50;4.50;;;11.90;83.70;;;;;;5184803;28;20421;-31
2022/01/31 02:08:45;;;;;;;8.07;3.97;;;11.90;83.70;;;;;;5184911;28;20045;-32
2022/01/31 02:11:16;;;;;;;8.67;3.17;;;11.90;83.80;;;;;;5184689;28;20060;-31
2022/01/31 02:13:47;;;;;;;6.73;2.63;;;11.80;83.60;;;;;;5187961;28;20041;-33
2022/01/31 02:16:18;;;;;;;8.40;2.93;;;11.90;83.80;;;;;;5192839;28;20058;-31
2022/01/31 02:18:52;;;;;;;8.40;3.80;;;11.90;83.70;;;;;;5198617;28;20092;-34
2022/01/31 02:21:23;;;;;;;7.57;3.23;;;11.90;83.70;;;;;;5195481;28;20041;-33
2022/01/31 02:23:54;;;;;;;9.73;3.37;;;11.90;83.80;;;;;;5187679;28;20034;-32
2022/01/31 02:26:26;;;;;;;9.10;2.90;;;11.90;83.60;;;;;;5183323;28;20503;-31
2022/01/31 02:28:57;;;;;;;9.17;3.40;;;11.90;83.50;;;;;;5184399;28;20053;-31
2022/01/31 02:31:28;;;;;;;7.70;3.23;;;11.90;83.70;;;;;;5184527;28;20080;-35
2022/01/31 02:33:59;;;;;;;8.37;3.03;;;11.90;83.60;;;;;;5183201;28;20073;-33
2022/01/31 02:36:30;;;;;;;8.37;3.00;;;11.90;83.50;;;;;;5184520;28;20099;-32
2022/01/31 02:39:01;;;;;;;9.63;4.23;;;11.90;83.40;;;;;;5213381;28;20049;-35
2022/01/31 02:41:38;;;;;;;10.47;3.10;;;11.80;83.50;;;;;;5184516;28;20084;-32
2022/01/31 02:44:16;;;;;;;8.57;2.77;;;11.80;83.50;;;;;;5184566;28;20046;-30
2022/01/31 02:46:52;;;;;;;6.00;3.10;;;11.80;83.40;;;;;;5183376;28;20061;-33
2022/01/31 02:49:28;;;;;;;8.53;3.60;;;11.80;83.60;;;;;;5183942;28;20049;-31
2022/01/31 02:52:02;;;;;;;8.47;2.77;;;11.80;83.60;;;;;;5184638;28;20137;-32
2022/01/31 02:54:33;;;;;;;7.10;2.87;;;11.80;83.70;;;;;;5184343;28;20045;-32
2022/01/31 02:57:04;;;;;;;11.73;4.00;;;11.80;83.60;;;;;;5184235;28;20069;-32
2022/01/31 02:59:35;;;;;;;11.27;4.00;;;11.80;83.50;;;;;;5184135;28;20069;-35
2022/01/31 03:02:06;;;;;;;8.93;3.80;;;11.80;83.50;;;;;;5184263;28;20042;-31
2022/01/31 03:04:37;;;;;;;13.63;6.00;;;11.80;83.50;;;;;;5198009;28;20046;-35
2022/01/31 03:07:08;;;;;;;11.03;4.83;;;11.80;83.40;;;;;;5184348;28;20065;-31
2022/01/31 03:09:39;;;;;;;9.83;4.53;;;11.80;83.50;;;;;;5198006;28;20084;-32
2022/01/31 03:12:10;;;;;;;8.40;3.73;;;11.90;83.50;;;;;;5184156;28;20452;-31
2022/01/31 03:14:42;;;;;;;10.83;3.90;;;11.80;83.70;;;;;;5195491;28;20076;-33
2022/01/31 03:17:13;;;;;;;12.90;4.20;;;11.80;83.50;;;;;;5186350;28;20072;-34
2022/01/31 03:19:48;;;;;;;8.73;3.07;;;11.80;83.60;;;;;;5184083;28;20519;-32
2022/01/31 03:22:20;;;;;;;7.67;2.90;;;11.80;83.50;;;;;;5184117;28;20049;-31
2022/01/31 03:24:51;;;;;;;12.33;3.30;;;11.80;83.40;;;;;;5184089;28;20088;-31
2022/01/31 03:27:23;;;;;;;6.50;2.60;;;11.80;83.70;;;;;;5187538;28;20064;-33
2022/01/31 03:29:53;;;;;;;8.53;3.37;;;11.80;83.40;;;;;;5187902;28;20058;-31
2022/01/31 03:32:25;;;;;;;11.70;4.27;;;11.80;83.60;;;;;;5187668;28;20337;-35
2022/01/31 03:34:55;;;;;;;9.03;3.73;;;11.80;83.70;;;;;;5187513;28;20516;-31
2022/01/31 03:37:27;;;;;;;8.07;3.33;;;11.80;83.70;;;;;;5187652;28;20041;-31
2022/01/31 03:39:58;;;;;;;7.87;3.60;;;11.80;83.80;;;;;;5187684;28;20684;-32
2022/01/31 03:42:29;;;;;;;10.10;3.10;;;11.90;83.70;;;;;;5187578;28;20876;-30
2022/01/31 03:45:00;;;;;;;8.30;3.50;;;11.90;84.00;;;;;;5187332;28;20077;-32
2022/01/31 03:47:31;;;;;;;10.93;3.57;;;11.90;84.00;;;;;;5201000;28;20045;-31
2022/01/31 03:50:02;;;;;;;15.77;6.40;;;11.90;84.00;;;;;;5187573;28;20042;-31
2022/01/31 03:52:33;;;;;;;14.67;5.33;;;11.80;84.10;;;;;;5187327;28;20050;-32
2022/01/31 03:55:04;;;;;;;8.30;3.40;;;11.80;84.10;;;;;;5199739;28;20049;-32
2022/01/31 03:57:35;;;;;;;11.77;3.60;;;11.80;84.10;;;;;;5187138;28;20516;-32
2022/01/31 04:00:08;;;;;;;9.77;4.17;;;11.80;84.10;;;;;;5187044;28;20116;-31
2022/01/31 04:02:39;;;;;;;10.38;4.65;;;11.80;84.20;;;;;;5186945;28;20129;-31
2022/01/31 04:05:10;;;;;;;12.77;5.43;;;11.80;83.90;;;;;;5187172;28;20451;-35
2022/01/31 04:07:43;;;;;;;11.63;4.13;;;11.80;83.80;;;;;;5185916;28;20042;-31
2022/01/31 04:10:14;;;;;;;7.73;3.13;;;11.80;83.70;;;;;;5187071;28;20046;-35
2022/01/31 04:12:45;;;;;;;11.63;4.57;;;11.80;83.60;;;;;;5186847;28;20597;-38
2022/01/31 04:15:16;;;;;;;11.67;4.20;;;11.80;83.70;;;;;;5199158;28;20140;-31
2022/01/31 04:17:47;;;;;;;9.60;4.30;;;11.80;83.80;;;;;;5186978;28;20046;-33
2022/01/31 04:20:19;;;;;;;12.80;4.10;;;11.80;83.60;;;;;;5185521;28;20064;-33
2022/01/31 04:22:56;;;;;;;8.27;3.37;;;11.80;83.50;;;;;;5185473;28;20459;-32
2022/01/31 04:28:03;;;;;;;10.17;3.57;;;11.80;83.40;;;;;;5186602;28;20077;-35
2022/01/31 04:30:38;;;;;;;10.48;4.78;;;11.80;83.30;;;;;;5186601;28;20500;-32
2022/01/31 04:33:09;;;;;;;11.00;4.00;;;11.80;83.20;;;;;;5186571;28;20128;-31
2022/01/31 04:35:39;;;;;;;8.93;4.03;;;11.80;83.00;;;;;;5185629;28;20129;-32
2022/01/31 04:38:11;;;;;;;12.63;5.57;;;11.80;83.00;;;;;;5186252;28;20053;-32
2022/01/31 04:40:41;;;;;;;13.30;6.20;;;11.80;83.00;;;;;;5186374;28;20891;-32
2022/01/31 04:43:13;;;;;;;10.70;3.87;;;11.80;83.00;;;;;;5186405;28;20045;-31
2022/01/31 04:45:47;;;;;;;9.03;3.80;;;11.80;83.00;;;;;;5186173;28;20544;-30
2022/01/31 04:48:19;;;;;;;9.47;3.00;;;11.80;83.00;;;;;;5185870;28;20049;-30
2022/01/31 04:50:50;;;;;;;7.20;3.47;;;11.80;82.90;;;;;;5186182;28;20069;-33
2022/01/31 04:53:21;;;;;;;9.87;3.37;;;11.80;82.70;;;;;;5186331;28;20096;-32
2022/01/31 04:55:52;;;;;;;9.77;4.17;;;11.80;82.70;;;;;;5184802;28;20046;-31
2022/01/31 04:58:25;;;;;;;10.70;3.30;;;11.80;82.60;;;;;;5184761;28;20045;-30
2022/01/31 05:00:55;;;;;;;13.67;3.63;;;11.80;82.60;;;;;;5201466;28;20072;-31
2022/01/31 05:03:27;;;;;;;9.03;2.87;;;11.80;82.60;;;;;;5206535;28;20474;-32
2022/01/31 05:05:58;;;;;;;10.60;3.93;;;11.80;82.50;;;;;;5208809;28;20048;-34
2022/01/31 05:08:29;;;;;;;7.60;3.43;;;11.80;82.40;;;;;;5208222;28;20041;-32
2022/01/31 05:11:00;;;;;;;9.97;4.20;;;11.90;82.20;;;;;;5208201;28;20049;-32
2022/01/31 05:13:32;;;;;;;10.20;3.90;;;11.90;82.00;;;;;;5208618;28;20048;-33
2022/01/31 05:16:04;;;;;;;12.30;4.47;;;12.00;82.00;;;;;;5208341;28;20049;-31
2022/01/31 05:18:35;;;;;;;13.73;5.40;;;12.00;82.00;;;;;;5208226;28;20154;-32
2022/01/31 05:21:08;;;;;;;14.53;7.03;;;12.10;81.90;;;;;;5207087;28;20128;-31
2022/01/31 05:23:39;;;;;;;10.90;5.40;;;12.00;81.90;;;;;;5206757;28;20054;-38
2022/01/31 05:26:10;;;;;;;10.47;4.47;;;12.00;81.90;;;;;;5208372;28;20495;-31
2022/01/31 05:28:41;;;;;;;11.83;4.43;;;12.00;81.90;;;;;;5206961;28;20492;-32
2022/01/31 05:31:12;;;;;;;12.57;5.73;;;12.10;82.00;;;;;;5208104;28;20065;-31
2022/01/31 05:33:43;;;;;;;13.90;6.23;;;12.10;82.00;;;;;;5207894;28;20095;-33
2022/01/31 05:36:14;;;;;;;15.90;7.20;;;12.10;82.10;;;;;;5208185;28;20450;-32
2022/01/31 05:38:45;;;;;;;15.30;6.30;;;12.00;82.30;;;;;;5208021;28;20045;-31
2022/01/31 05:41:19;;;;;;;15.40;6.43;;;12.00;82.40;;;;;;5207922;28;20115;-31
2022/01/31 05:43:50;;;;;;;13.73;5.63;;;12.10;82.40;;;;;;5189205;28;20065;-31
2022/01/31 05:46:21;;;;;;;14.43;6.97;;;12.10;82.50;;;;;;5187405;28;20073;-31
2022/01/31 05:48:53;;;;;;;11.23;5.47;;;12.10;83.00;;;;;;5185981;28;20476;-32
2022/01/31 05:51:23;;;;;;;14.77;5.80;;;12.20;82.90;;;;;;5192951;28;20108;-31
2022/01/31 05:53:55;;;;;;;12.33;5.70;;;12.20;82.60;;;;;;5205545;28;20395;-35
2022/01/31 05:56:25;;;;;;;14.53;4.97;;;12.30;82.60;;;;;;5206503;28;20055;-34
2022/01/31 05:58:56;;;;;;;11.90;5.40;;;12.30;82.40;;;;;;5207536;28;20587;-32
2022/01/31 06:01:27;;;;;;;11.83;5.77;;;12.30;82.00;;;;;;5190062;28;20093;-32
2022/01/31 06:03:58;;;;;;;14.77;7.07;;;12.40;81.90;;;;;;5207574;28;20498;-31
2022/01/31 06:06:29;;;;;;;26.93;22.73;;;12.40;81.70;;;;;;5207493;28;20045;-31
2022/01/31 06:09:00;;;;;;;11.73;5.90;;;12.40;81.80;;;;;;5207379;28;20077;-34
2022/01/31 06:11:33;;;;;;;14.70;5.83;;;12.40;81.70;;;;;;5207354;28;20045;-37
2022/01/31 06:14:08;;;;;;;17.50;7.97;;;12.30;81.60;;;;;;5207866;28;20407;-33
2022/01/31 06:16:39;;;;;;;13.60;6.80;;;12.30;81.80;;;;;;5205894;28;20057;-35
2022/01/31 06:19:10;;;;;;;22.10;11.73;;;12.30;82.10;;;;;;5207366;28;20072;-37
2022/01/31 06:21:41;;;;;;;16.67;8.90;;;12.30;82.10;;;;;;5207163;28;20046;-36
2022/01/31 06:24:15;;;;;;;13.80;6.33;;;12.30;82.10;;;;;;5207043;28;20165;-32
2022/01/31 06:26:47;;;;;;;12.67;6.10;;;12.30;82.20;;;;;;5207283;28;20442;-31
2022/01/31 06:29:19;;;;;;;21.77;11.13;;;12.30;82.20;;;;;;5207279;28;20096;-36
2022/01/31 06:31:50;;;;;;;15.80;8.43;;;12.30;82.30;;;;;;5206073;28;20042;-33
2022/01/31 06:35:06;;;;;;;58.07;34.00;;;12.30;82.40;;;;;;5207028;28;20103;-31
2022/01/31 06:37:37;;;;;;;19.80;10.90;;;12.30;82.40;;;;;;5205997;28;20045;-31
2022/01/31 06:40:09;;;;;;;18.43;9.80;;;12.30;82.40;;;;;;5207011;28;20049;-36
2022/01/31 06:42:40;;;;;;;22.73;10.27;;;12.30;82.30;;;;;;5207318;28;20049;-38
2022/01/31 06:45:14;;;;;;;43.65;30.15;;;12.30;82.50;;;;;;5189752;28;20042;-33
2022/01/31 06:47:45;;;;;;;62.17;43.07;;;12.20;82.40;;;;;;5207052;28;20445;-34
2022/01/31 06:50:16;;;;;;;32.57;22.80;;;12.30;82.50;;;;;;5206799;28;20128;-38
2022/01/31 06:52:51;;;;;;;35.33;24.80;;;12.30;82.60;;;;;;5207318;28;20128;-33
2022/01/31 06:55:25;;;;;;;60.43;40.83;;;12.40;82.70;;;;;;5206874;28;20095;-41
2022/01/31 06:57:56;;;;;;;61.30;43.17;;;12.30;82.80;;;;;;5189637;28;20050;-32
2022/01/31 07:00:30;;;;;;;55.23;37.23;;;12.40;82.80;;;;;;5209490;28;20502;-28
2022/01/31 07:03:15;;;;;;;55.80;31.60;;;12.40;82.90;;;;;;5210995;28;20502;-39
2022/01/31 07:05:46;;;;;;;70.33;40.43;;;12.40;82.80;;;;;;5209804;28;20057;-32
2022/01/31 07:08:18;;;;;;;68.70;37.13;;;12.40;82.80;;;;;;5209704;28;20054;-35
2022/01/31 07:10:53;;;;;;;50.70;33.13;;;12.50;82.80;;;;;;5210757;28;20487;-40
2022/01/31 07:13:37;;;;;;;87.83;52.30;;;12.50;83.00;;;;;;5209767;28;20479;-31
2022/01/31 07:16:11;;;;;;;85.13;55.40;;;12.50;83.20;;;;;;5210398;28;20499;-31
2022/01/31 07:18:43;;;;;;;62.87;50.27;;;12.50;83.50;;;;;;5210660;28;20044;-33
2022/01/31 07:21:17;;;;;;;28.27;17.95;;;12.60;83.50;;;;;;5210253;28;20393;-31
2022/01/31 07:24:04;;;;;;;;;;;12.80;82.80;;;;;;5210610;28;20053;-32
2022/01/31 07:26:35;;;;;;;58.50;37.37;;;12.80;82.60;;;;;;5210802;28;19924;-33
2022/01/31 07:29:06;;;;;;;51.90;33.43;;;12.90;82.70;;;;;;5209026;28;20049;-32
2022/01/31 07:31:38;;;;;;;47.17;31.53;;;13.00;82.50;;;;;;5210751;28;20045;-30
2022/01/31 07:34:09;;;;;;;24.43;17.83;;;13.10;82.20;;;;;;5210344;28;20041;-32
2022/01/31 07:36:40;;;;;;;27.57;13.33;;;13.10;82.10;;;;;;5209998;28;20080;-36
2022/01/31 07:39:11;;;;;;;13.77;7.73;;;13.10;81.70;;;;;;5210071;28;20467;-33
2022/01/31 07:41:43;;;;;;;37.30;19.30;;;13.10;81.70;;;;;;5210187;28;20084;-34
2022/01/31 07:44:14;;;;;;;23.93;11.67;;;13.10;81.70;;;;;;5210165;28;20400;-33
2022/01/31 07:46:49;;;;;;;23.60;10.07;;;13.10;81.70;;;;;;5207362;28;20058;-36
2022/01/31 07:49:22;;;;;;;28.13;13.87;;;13.10;81.60;;;;;;5207089;28;20554;-32
2022/01/31 07:51:54;;;;;;;22.17;12.00;;;13.10;81.60;;;;;;5207827;28;20072;-32
2022/01/31 07:54:26;;;;;;;25.15;13.43;;;13.10;81.70;;;;;;5207947;28;20045;-33
2022/01/31 07:57:00;;;;;;;15.07;7.63;;;13.10;82.50;;;;;;5203823;28;20056;-33
2022/01/31 07:59:30;;;;;;;14.70;8.33;;;13.10;83.40;;;;;;5187007;28;20053;-34
2022/01/31 08:02:12;;;;;;;21.07;10.27;;;13.20;83.50;;;;;;5189669;28;20049;-38
2022/01/31 08:04:43;;;;;;;18.00;8.63;;;13.30;83.40;;;;;;5196633;28;20049;-31
2022/01/31 08:07:16;;;;;;;33.97;18.83;;;13.40;83.40;;;;;;5185602;28;20121;-33
2022/01/31 08:09:48;;;;;;;46.20;24.17;;;13.50;82.90;;;;;;5187085;28;20061;-40
2022/01/31 08:12:19;;;;;;;36.47;21.33;;;13.60;82.70;;;;;;5185347;28;20476;-31
2022/01/31 08:14:50;;;;;;;24.53;12.87;;;13.60;81.70;;;;;;5186736;28;20092;-38
2022/01/31 08:17:34;;;;;;;;;;;13.70;81.80;;;;;;5187538;28;20041;-36
2022/01/31 08:20:06;;;;;;;24.40;12.60;;;13.70;88.90;;;;;;5186970;28;20375;-33
2022/01/31 08:22:37;;;;;;;16.53;6.93;;;13.80;91.00;;;;;;5185189;28;20069;-32
2022/01/31 08:25:13;;;;;;;19.70;9.73;;;13.90;90.30;;;;;;5186576;28;20081;-39
2022/01/31 08:27:47;;;;;;;23.93;12.30;;;13.90;89.40;;;;;;5185373;28;20112;-32
2022/01/31 08:30:24;;;;;;;16.60;10.00;;;14.00;85.80;;;;;;5186567;28;20093;-33
2022/01/31 08:33:01;;;;;;;14.30;6.90;;;14.00;83.70;;;;;;5186381;28;20484;-30
2022/01/31 08:35:50;;;;;;;13.93;6.30;;;13.90;83.10;;;;;;5198560;28;20049;-37
2022/01/31 08:38:21;;;;;;;15.97;8.07;;;13.90;82.90;;;;;;5199020;28;20046;-36
2022/01/31 08:40:52;;;;;;;14.43;8.30;;;13.90;84.10;;;;;;5186283;28;20046;-34
2022/01/31 08:43:24;;;;;;;13.63;5.43;;;13.80;82.10;;;;;;5186268;28;20547;-34
2022/01/31 08:46:02;;;;;;;11.63;6.17;;;13.80;81.70;;;;;;5186037;28;20053;-35
2022/01/31 08:48:33;;;;;;;12.67;6.97;;;13.80;82.40;;;;;;5185009;28;20057;-29
2022/01/31 08:51:06;;;;;;;11.53;4.97;;;13.70;81.70;;;;;;5184593;28;20054;-31
2022/01/31 08:53:39;;;;;;;14.73;9.80;;;13.70;82.20;;;;;;5185049;28;20046;-30
2022/01/31 08:56:11;;;;;;;12.63;5.10;;;13.70;81.50;;;;;;5196690;28;20118;-34
2022/01/31 08:58:47;;;;;;;11.17;4.90;;;13.60;81.40;;;;;;5188992;28;20041;-37
2022/01/31 09:01:22;;;;;;;14.17;5.67;;;13.60;81.20;;;;;;5186255;28;20069;-31
2022/01/31 09:06:26;;;;;;;20.63;10.70;;;13.50;81.20;;;;;;5185777;28;20056;-32
2022/01/31 09:08:57;;;;;;;18.33;8.15;;;13.50;81.00;;;;;;5187539;28;20538;-39
2022/01/31 09:11:31;;;;;;;18.77;9.43;;;13.40;82.00;;;;;;5188007;28;20065;-37
2022/01/31 09:14:03;;;;;;;17.53;7.33;;;13.50;81.90;;;;;;5188386;28;20104;-34
2022/01/31 09:16:34;;;;;;;16.17;7.23;;;13.40;82.00;;;;;;5187757;28;20045;-31
2022/01/31 09:19:05;;;;;;;15.07;6.67;;;13.40;81.30;;;;;;5187849;28;20504;-30
2022/01/31 09:21:36;;;;;;;18.07;9.07;;;13.40;81.30;;;;;;5187826;28;20083;-38
2022/01/31 09:24:07;;;;;;;14.03;9.03;;;13.40;81.60;;;;;;5187453;28;20076;-30
2022/01/31 09:26:38;;;;;;;16.73;9.43;;;13.30;81.90;;;;;;5188276;28;20392;-30
2022/01/31 09:29:09;;;;;;;18.80;10.93;;;13.30;82.30;;;;;;5187628;28;20440;-30
2022/01/31 09:31:41;;;;;;;14.03;7.40;;;13.30;81.60;;;;;;5187700;28;20049;-31
2022/01/31 09:34:12;;;;;;;16.50;7.93;;;13.30;81.80;;;;;;5186330;28;20046;-31
2022/01/31 09:36:43;;;;;;;10.43;5.27;;;13.20;81.40;;;;;;5187477;28;20104;-29
2022/01/31 09:39:14;;;;;;;15.37;7.10;;;13.20;81.00;;;;;;5187631;28;20042;-30
2022/01/31 09:41:52;;;;;;;14.10;7.53;;;13.20;81.00;;;;;;5188002;28;20046;-32
2022/01/31 09:47:22;;;;;;;14.20;6.47;;;13.10;81.90;;;;;;5187933;28;20531;-32
2022/01/31 09:49:53;;;;;;;11.27;3.63;;;13.20;81.50;;;;;;5187579;28;20084;-30
2022/01/31 09:52:24;;;;;;;14.10;6.13;;;13.20;80.70;;;;;;5187698;28;20077;-30
2022/01/31 09:54:55;;;;;;;14.83;8.37;;;13.20;80.70;;;;;;5187544;28;20085;-29
2022/01/31 09:57:26;;;;;;;9.40;4.60;;;13.20;80.60;;;;;;5187038;28;20085;-30
2022/01/31 09:59:57;;;;;;;14.17;6.97;;;13.20;79.90;;;;;;5187228;28;20528;-29
2022/01/31 10:02:28;;;;;;;10.70;4.07;;;13.20;79.60;;;;;;5187084;28;20125;-31
2022/01/31 10:04:59;;;;;;;14.73;6.60;;;13.20;79.60;;;;;;5187422;28;20042;-37
2022/01/31 10:07:46;;;;;;;14.80;8.03;;;13.20;79.80;;;;;;5187041;28;20503;-34
2022/01/31 10:10:25;;;;;;;17.17;6.77;;;13.20;79.70;;;;;;5185848;28;20041;-32
2022/01/31 10:18:17;;;;;;;10.07;4.23;;;13.20;79.40;;;;;;5164325;28;20054;-33
2022/01/31 10:20:48;;;;;;;12.43;4.90;;;13.20;79.60;;;;;;5164474;28;20532;-33
2022/01/31 10:23:19;;;;;;;17.13;9.00;;;13.10;78.60;;;;;;5164317;28;20074;-32
2022/01/31 10:25:50;;;;;;;8.83;3.43;;;13.00;78.70;;;;;;5164355;28;20054;-30
2022/01/31 10:28:23;;;;;;;14.93;7.67;;;13.00;78.60;;;;;;5164256;28;20069;-30
2022/01/31 10:30:55;;;;;;;18.37;11.17;;;13.00;78.70;;;;;;5164181;28;20077;-30
2022/01/31 10:33:30;;;;;;;33.22;16.38;;;13.00;79.60;;;;;;5164217;28;20081;-33
2022/01/31 10:36:02;;;;;;;23.50;12.03;;;13.00;80.60;;;;;;5167616;28;20117;-31
2022/01/31 10:38:38;;;;;;;22.77;13.07;;;13.00;81.10;;;;;;5168362;28;20078;-33
2022/01/31 10:44:56;;;;;;;22.60;11.57;;;13.00;81.10;;;;;;5153555;28;20050;-31
2022/01/31 10:53:11;;;;;;;22.53;14.83;;;13.00;80.50;;;;;;5186614;28;20069;-32
2022/01/31 10:55:42;;;;;;;22.63;13.30;;;12.90;80.00;;;;;;5155696;28;20054;-32
2022/01/31 10:58:14;;;;;;;22.63;15.03;;;12.90;80.10;;;;;;5171913;28;20050;-36
2022/01/31 11:00:45;;;;;;;19.63;13.43;;;12.90;79.50;;;;;;5188014;28;20065;-37
2022/01/31 11:03:28;;;;;;;16.77;7.60;;;12.90;79.10;;;;;;5155800;28;20516;-34
2022/01/31 11:06:05;;;;;;;15.17;6.60;;;12.80;78.80;;;;;;5171832;28;20054;-31
2022/01/31 11:08:37;;;;;;;13.47;7.70;;;12.80;78.60;;;;;;5189080;28;20518;-32
2022/01/31 11:11:08;;;;;;;16.83;10.83;;;12.80;78.70;;;;;;5189586;28;20069;-35
2022/01/31 11:13:40;;;;;;;13.70;7.07;;;12.80;79.30;;;;;;5189763;28;20042;-29
2022/01/31 11:16:11;;;;;;;12.13;5.47;;;12.80;78.90;;;;;;5190178;28;20054;-31
2022/01/31 11:18:44;;;;;;;13.37;6.47;;;12.70;77.80;;;;;;5172603;28;20050;-34
2022/01/31 11:21:21;;;;;;;15.80;7.03;;;12.70;77.60;;;;;;5188637;28;20048;-31
2022/01/31 11:24:17;;;;;;;14.20;7.77;;;12.70;77.60;;;;;;5190265;28;20049;-31
2022/01/31 11:26:51;;;;;;;14.83;6.73;;;12.70;77.00;;;;;;5187639;28;20180;-30
2022/01/31 11:29:23;;;;;;;15.07;7.07;;;12.70;76.80;;;;;;5189806;28;20499;-30
2022/01/31 11:31:53;;;;;;;17.50;7.53;;;12.60;77.10;;;;;;5188700;28;20077;-32
2022/01/31 11:34:25;;;;;;;12.53;7.80;;;12.70;77.00;;;;;;5189727;28;20046;-30
2022/01/31 11:36:56;;;;;;;10.33;5.03;;;12.60;76.30;;;;;;5188154;28;20054;-33
2022/01/31 11:39:27;;;;;;;10.93;5.33;;;12.60;76.00;;;;;;5189814;28;20045;-32
2022/01/31 11:42:00;;;;;;;9.23;4.23;;;12.60;76.70;;;;;;5187207;28;20042;-31
2022/01/31 11:44:51;;;;;;;13.37;7.93;;;12.60;75.50;;;;;;5189355;28;20050;-32
2022/01/31 11:47:23;;;;;;;13.33;6.53;;;12.60;75.10;;;;;;5188354;28;20120;-31
2022/01/31 11:50:14;;;;;;;12.77;5.67;;;12.60;74.90;;;;;;5188006;28;20049;-33
2022/01/31 11:52:50;;;;;;;7.50;3.13;;;12.60;74.30;;;;;;5189482;28;20042;-32
2022/01/31 11:55:22;;;;;;;11.27;5.27;;;12.50;74.00;;;;;;5187896;28;20050;-34
2022/01/31 11:57:53;;;;;;;16.85;8.68;;;12.60;74.50;;;;;;5189292;28;20476;-35
2022/01/31 12:00:27;;;;;;;10.17;5.07;;;12.70;75.00;;;;;;5189112;28;20057;-33
2022/01/31 12:03:06;;;;;;;11.70;6.37;;;12.70;75.20;;;;;;5188161;28;20056;-34
2022/01/31 12:05:38;;;;;;;13.30;6.60;;;12.80;74.90;;;;;;5189097;28;20380;-31
2022/01/31 12:08:15;;;;;;;9.00;4.63;;;12.70;74.20;;;;;;5189217;28;20074;-31
2022/01/31 12:10:52;;;;;;;19.30;10.60;;;12.70;74.00;;;;;;5188933;28;20069;-34
2022/01/31 12:13:38;;;;;;;12.57;7.07;;;12.70;74.40;;;;;;5189237;28;20131;-34
2022/01/31 12:19:32;;;;;;;11.13;5.10;;;12.70;73.80;;;;;;5188828;28;20069;-36
2022/01/31 12:22:05;;;;;;;8.57;5.20;;;12.60;73.70;;;;;;5188863;28;20060;-33
2022/01/31 12:24:39;;;;;;;12.13;6.43;;;12.60;74.20;;;;;;5188559;28;20068;-31
2022/01/31 12:27:18;;;;;;;15.80;8.20;;;12.60;74.90;;;;;;5187472;28;20053;-35
2022/01/31 12:29:54;;;;;;;12.07;5.60;;;12.60;75.40;;;;;;5188704;28;20049;-37
2022/01/31 12:32:36;;;;;;;9.17;4.43;;;12.60;75.70;;;;;;5188425;28;20050;-32
2022/01/31 12:35:11;;;;;;;7.07;3.10;;;12.60;74.90;;;;;;5188987;28;20388;-36
2022/01/31 12:37:49;;;;;;;9.10;4.27;;;12.60;74.60;;;;;;5188932;28;20404;-31
2022/01/31 12:40:29;;;;;;;10.30;3.90;;;12.70;74.50;;;;;;5188291;28;20049;-31
2022/01/31 12:45:36;;;;;;;10.00;4.83;;;12.70;74.60;;;;;;5188107;28;20049;-32
2022/01/31 12:48:08;;;;;;;9.53;5.10;;;12.70;74.40;;;;;;5186905;28;20104;-31
2022/01/31 12:50:48;;;;;;;22.83;11.97;;;12.70;74.90;;;;;;5188004;28;20057;-31
2022/01/31 12:53:22;;;;;;;49.03;23.87;;;12.70;74.50;;;;;;5188114;28;20092;-31
2022/01/31 12:56:20;;;;;;;35.63;17.83;;;12.70;74.90;;;;;;5188160;28;20551;-33
2022/01/31 12:58:54;;;;;;;38.73;22.33;;;12.70;75.10;;;;;;5187804;28;20038;-34
2022/01/31 13:01:29;;;;;;;11.90;6.00;;;12.70;75.70;;;;;;5188056;28;20065;-33
2022/01/31 13:04:03;;;;;;;9.77;4.37;;;12.70;75.30;;;;;;5187984;28;20457;-31
2022/01/31 13:06:44;;;;;;;12.67;6.50;;;12.70;75.50;;;;;;5187669;28;20060;-31
2022/01/31 13:09:29;;;;;;;15.40;5.70;;;12.70;75.30;;;;;;5188075;28;20073;-32
2022/01/31 13:12:11;;;;;;;20.77;10.30;;;12.70;75.10;;;;;;5170099;28;20057;-33
2022/01/31 13:14:46;;;;;;;9.33;4.07;;;12.70;75.10;;;;;;5187580;28;20078;-33
2022/01/31 13:17:18;;;;;;;7.53;4.30;;;12.70;74.80;;;;;;5188084;28;20418;-32
2022/01/31 13:20:06;;;;;;;11.10;4.57;;;12.70;74.80;;;;;;5187792;28;20045;-31
2022/01/31 13:22:41;;;;;;;13.20;6.73;;;12.70;74.60;;;;;;5186111;28;20526;-31
2022/01/31 13:25:14;;;;;;;10.30;4.87;;;12.70;75.10;;;;;;5187307;28;20062;-37
2022/01/31 13:27:46;;;;;;;12.98;5.47;;;12.70;75.50;;;;;;5186524;28;20049;-35
2022/01/31 13:30:19;;;;;;;114.37;25.40;;;12.70;74.80;;;;;;5185679;28;20058;-32
2022/01/31 13:32:50;;;;;;;49.88;15.07;;;12.70;74.90;;;;;;5186956;28;20444;-32
2022/01/31 13:35:29;;;;;;;10.40;4.83;;;12.80;75.10;;;;;;5187326;28;20045;-32
2022/01/31 13:38:06;;;;;;;8.80;4.50;;;12.80;73.40;;;;;;5187657;28;20049;-30